createdAt,value
2023-02-11T00:00:58.281Z,21.08
2023-02-11T00:03:25.743Z,18.63
2023-02-11T00:05:59.705Z,16.17
2023-02-11T00:08:28.008Z,18.38
2023-02-11T00:10:55.856Z,21.75
2023-02-11T00:13:23.429Z,16.73
2023-02-11T00:15:50.934Z,18.65
2023-02-11T00:18:17.768Z,21.38
2023-02-11T00:20:45.024Z,18.00
2023-02-11T00:23:11.997Z,18.60
2023-02-11T00:25:41.421Z,20.83
2023-02-11T00:28:10.942Z,19.27
2023-02-11T00:30:40.706Z,19.90
2023-02-11T00:33:08.219Z,22.42
2023-02-11T00:35:37.064Z,18.70
2023-02-11T00:38:03.969Z,20.00
2023-02-11T00:40:31.385Z,17.85
2023-02-11T00:42:59.610Z,16.73
2023-02-11T00:45:26.421Z,16.08
2023-02-11T00:47:55.030Z,18.60
2023-02-11T00:50:21.969Z,17.65
2023-02-11T00:52:49.224Z,18.88
2023-02-11T00:55:16.162Z,15.77
2023-02-11T00:57:43.061Z,14.70
2023-02-11T01:00:15.321Z,18.02
2023-02-11T01:02:42.272Z,20.00
2023-02-11T01:05:10.666Z,19.58
2023-02-11T01:07:37.420Z,19.70
2023-02-11T01:10:04.712Z,19.73
2023-02-11T01:12:33.522Z,22.20
2023-02-11T01:15:02.310Z,20.35
2023-02-11T01:17:30.447Z,22.67
2023-02-11T01:19:57.562Z,16.95
2023-02-11T01:22:24.857Z,17.40
2023-02-11T01:24:51.637Z,17.88
2023-02-11T01:27:18.238Z,19.13
2023-02-11T01:29:46.239Z,21.17
2023-02-11T01:32:14.056Z,18.95
2023-02-11T01:34:42.603Z,19.50
2023-02-11T01:37:09.207Z,22.15
2023-02-11T01:39:35.968Z,22.88
2023-02-11T01:42:03.023Z,21.92
2023-02-11T01:44:32.142Z,22.77
2023-02-11T01:46:59.148Z,22.17
2023-02-11T01:49:30.418Z,22.83
2023-02-11T01:54:33.405Z,22.75
2023-02-11T01:57:02.474Z,18.63
2023-02-11T01:59:34.662Z,18.90
2023-02-11T02:02:07.986Z,17.08
2023-02-11T02:04:42.095Z,20.50
2023-02-11T02:07:17.641Z,18.90
2023-02-11T02:09:49.587Z,21.65
2023-02-11T02:14:42.965Z,22.85
2023-02-11T02:17:20.169Z,20.50
2023-02-11T02:20:13.395Z,20.58
2023-02-11T02:23:13.042Z,20.70
2023-02-11T02:26:12.004Z,22.00
2023-02-11T02:29:01.347Z,19.55
2023-02-11T02:31:49.007Z,24.30
2023-02-11T02:34:29.128Z,22.42
2023-02-11T02:37:03.650Z,19.58
2023-02-11T02:39:37.228Z,20.45
2023-02-11T02:42:04.956Z,24.23
2023-02-11T02:44:32.524Z,19.65
2023-02-11T02:46:59.641Z,20.70
2023-02-11T02:49:28.626Z,19.48
2023-02-11T02:52:09.364Z,21.85
2023-02-11T02:54:53.544Z,19.08
2023-02-11T02:57:30.566Z,16.92
2023-02-11T03:00:09.083Z,21.13
2023-02-11T03:02:42.802Z,23.55
2023-02-11T03:05:17.316Z,22.48
2023-02-11T03:07:48.630Z,22.30
2023-02-11T03:10:19.352Z,19.70
2023-02-11T03:12:48.178Z,18.65
2023-02-11T03:15:18.414Z,26.63
2023-02-11T03:17:49.598Z,19.02
2023-02-11T03:20:21.179Z,21.08
2023-02-11T03:22:52.642Z,14.30
2023-02-11T03:25:20.704Z,19.45
2023-02-11T03:27:52.762Z,25.38
2023-02-11T03:30:26.379Z,25.00
2023-02-11T03:32:57.572Z,23.33
2023-02-11T03:35:32.147Z,25.90
2023-02-11T03:38:03.269Z,24.00
2023-02-11T03:40:35.130Z,22.30
2023-02-11T03:43:06.976Z,23.10
2023-02-11T03:45:35.985Z,22.00
2023-02-11T03:48:09.074Z,19.67
2023-02-11T03:50:39.153Z,21.25
2023-02-11T03:53:07.737Z,23.27
2023-02-11T03:55:39.362Z,25.08
2023-02-11T03:58:06.471Z,22.95
2023-02-11T04:00:36.700Z,22.92
2023-02-11T04:03:04.867Z,21.77
2023-02-11T04:05:31.941Z,20.08
2023-02-11T04:08:00.651Z,20.80
2023-02-11T04:10:27.273Z,21.90
2023-02-11T04:12:53.876Z,20.40
2023-02-11T04:15:23.465Z,20.73
2023-02-11T04:17:51.043Z,22.85
2023-02-11T04:20:17.790Z,21.42
2023-02-11T04:22:45.069Z,20.67
2023-02-11T04:25:13.245Z,22.90
2023-02-11T04:27:40.008Z,23.60
2023-02-11T04:30:08.699Z,21.58
2023-02-11T04:32:35.349Z,21.50
2023-02-11T04:35:01.911Z,21.60
2023-02-11T04:37:28.584Z,25.25
2023-02-11T04:39:55.159Z,24.05
2023-02-11T04:42:23.689Z,20.13
2023-02-11T04:44:50.242Z,19.33
2023-02-11T04:47:16.912Z,22.33
2023-02-11T04:49:43.623Z,28.95
2023-02-11T04:52:10.746Z,23.52
2023-02-11T04:54:37.372Z,26.27
2023-02-11T04:57:04.000Z,22.70
2023-02-11T04:59:31.902Z,25.00
2023-02-11T05:01:58.661Z,23.40
2023-02-11T05:04:25.483Z,23.65
2023-02-11T05:06:52.205Z,23.38
2023-02-11T05:09:18.952Z,23.02
2023-02-11T05:11:45.597Z,21.90
2023-02-11T05:14:12.285Z,22.75
2023-02-11T05:16:40.388Z,24.65
2023-02-11T05:19:07.230Z,19.90
2023-02-11T05:21:34.451Z,21.75
2023-02-11T05:24:01.312Z,21.42
2023-02-11T05:26:28.077Z,22.98
2023-02-11T05:28:54.676Z,24.65
2023-02-11T05:31:21.797Z,20.50
2023-02-11T05:33:49.727Z,24.45
2023-02-11T05:36:16.358Z,23.23
2023-02-11T05:38:43.089Z,24.25
2023-02-11T05:41:10.542Z,21.13
2023-02-11T05:43:37.306Z,23.38
2023-02-11T05:46:05.873Z,25.33
2023-02-11T05:48:32.737Z,22.88
2023-02-11T05:51:00.683Z,22.85
2023-02-11T05:53:27.261Z,22.27
2023-02-11T05:55:53.868Z,21.00
2023-02-11T05:58:20.538Z,22.13
2023-02-11T06:00:47.131Z,21.23
2023-02-11T06:03:13.727Z,22.42
2023-02-11T06:05:41.977Z,20.80
2023-02-11T06:08:10.004Z,23.70
2023-02-11T06:10:36.594Z,25.58
2023-02-11T06:13:03.432Z,22.17
2023-02-11T06:15:30.288Z,27.50
2023-02-11T06:17:57.150Z,24.45
2023-02-11T06:20:23.797Z,23.85
2023-02-11T06:22:50.496Z,23.67
2023-02-11T06:25:18.772Z,22.25
2023-02-11T06:27:45.348Z,21.80
2023-02-11T06:30:12.661Z,23.15
2023-02-11T06:32:44.483Z,21.20
2023-02-11T06:35:12.570Z,24.25
2023-02-11T06:37:39.789Z,27.45
2023-02-11T06:40:07.368Z,24.30
2023-02-11T06:42:35.512Z,21.48
2023-02-11T06:45:03.130Z,23.55
2023-02-11T06:47:29.688Z,23.65
2023-02-11T06:49:56.394Z,22.25
2023-02-11T06:52:22.969Z,25.80
2023-02-11T06:54:49.887Z,25.25
2023-02-11T06:57:16.473Z,21.25
2023-02-11T06:59:44.811Z,26.75
2023-02-11T07:02:11.469Z,23.42
2023-02-11T07:04:38.121Z,24.92
2023-02-11T07:07:04.938Z,19.17
2023-02-11T07:09:31.571Z,28.80
2023-02-11T07:11:58.149Z,24.15
2023-02-11T07:14:26.178Z,21.60
2023-02-11T07:16:54.080Z,24.85
2023-02-11T07:19:21.010Z,23.25
2023-02-11T07:21:47.576Z,22.25
2023-02-11T07:24:14.208Z,25.52
2023-02-11T07:26:40.887Z,24.45
2023-02-11T07:29:07.736Z,24.10
2023-02-11T07:31:34.492Z,23.05
2023-02-11T07:34:03.006Z,26.52
2023-02-11T07:36:31.311Z,27.30
2023-02-11T07:38:58.305Z,25.67
2023-02-11T07:41:25.223Z,24.27
2023-02-11T07:43:52.498Z,27.85
2023-02-11T07:46:21.386Z,25.75
2023-02-11T07:48:48.578Z,29.60
2023-02-11T07:51:19.174Z,59.65
2023-02-11T07:53:46.665Z,37.45
2023-02-11T07:56:14.944Z,29.88
2023-02-11T07:58:42.781Z,27.17
2023-02-11T08:01:12.218Z,26.75
2023-02-11T08:03:40.061Z,23.45
2023-02-11T08:06:09.180Z,25.58
2023-02-11T08:08:37.854Z,25.13
2023-02-11T08:11:08.473Z,26.75
2023-02-11T08:13:35.612Z,21.02
2023-02-11T08:16:02.678Z,26.50
2023-02-11T08:18:29.889Z,25.63
2023-02-11T08:21:04.691Z,28.58
2023-02-11T08:23:31.310Z,26.17
2023-02-11T08:26:02.465Z,26.38
2023-02-11T08:28:29.123Z,23.70
2023-02-11T08:30:55.888Z,29.20
2023-02-11T08:33:22.793Z,25.77
2023-02-11T08:35:49.427Z,29.75
2023-02-11T08:38:16.098Z,32.05
2023-02-11T08:40:43.025Z,27.33
2023-02-11T08:43:11.096Z,23.40
2023-02-11T08:45:37.847Z,22.42
2023-02-11T08:48:04.548Z,29.92
2023-02-11T08:50:31.181Z,29.33
2023-02-11T08:52:58.000Z,28.33
2023-02-11T08:55:24.556Z,29.05
2023-02-11T08:57:51.210Z,23.88
2023-02-11T09:00:20.141Z,31.30
2023-02-11T09:02:47.094Z,27.98
2023-02-11T09:05:13.938Z,30.45
2023-02-11T09:07:40.796Z,25.75
2023-02-11T09:10:08.370Z,25.20
2023-02-11T09:12:35.129Z,31.70
2023-02-11T09:15:01.701Z,30.50
2023-02-11T09:17:29.873Z,31.38
2023-02-11T09:19:56.735Z,27.13
2023-02-11T09:22:24.075Z,26.90
2023-02-11T09:24:51.006Z,28.05
2023-02-11T09:27:17.762Z,29.35
2023-02-11T09:29:44.436Z,25.35
2023-02-11T09:32:11.503Z,27.77
2023-02-11T09:34:39.601Z,27.20
2023-02-11T09:37:06.441Z,28.15
2023-02-11T09:39:33.187Z,29.75
2023-02-11T09:42:15.191Z,29.20
2023-02-11T09:44:44.895Z,30.02
2023-02-11T09:47:23.733Z,28.25
2023-02-11T09:49:56.611Z,24.88
2023-02-11T09:52:37.198Z,34.72
2023-02-11T09:55:14.062Z,34.92
2023-02-11T09:57:40.763Z,26.88
2023-02-11T10:00:18.086Z,28.20
2023-02-11T10:02:58.095Z,31.60
2023-02-11T10:05:38.379Z,35.45
2023-02-11T10:08:16.568Z,31.17
2023-02-11T10:10:51.997Z,32.75
2023-02-11T10:13:47.423Z,33.80
2023-02-11T10:16:28.599Z,31.42
2023-02-11T10:19:16.713Z,30.03
2023-02-11T10:21:57.781Z,32.15
2023-02-11T10:24:26.775Z,29.55
2023-02-11T10:26:53.308Z,31.67
2023-02-11T10:29:35.361Z,30.13
2023-02-11T10:34:30.007Z,38.95
2023-02-11T10:36:58.557Z,35.10
2023-02-11T10:39:27.544Z,32.47
2023-02-11T10:41:59.281Z,32.50
2023-02-11T10:44:30.755Z,35.13
2023-02-11T10:47:02.981Z,39.67
2023-02-11T10:49:40.453Z,33.63
2023-02-11T10:52:19.367Z,34.83
2023-02-11T10:54:57.972Z,34.00
2023-02-11T10:57:28.378Z,30.17
2023-02-11T10:59:59.468Z,30.83
2023-02-11T11:02:29.877Z,33.45
2023-02-11T11:04:57.186Z,32.95
2023-02-11T11:07:27.048Z,32.60
2023-02-11T11:09:55.948Z,29.65
2023-02-11T11:12:28.308Z,31.45
2023-02-11T11:14:56.085Z,33.28
2023-02-11T11:17:22.653Z,31.83
2023-02-11T11:19:49.627Z,31.17
2023-02-11T11:22:21.828Z,31.33
2023-02-11T11:24:50.615Z,31.80
2023-02-11T11:27:19.098Z,27.20
2023-02-11T11:29:49.327Z,34.10
2023-02-11T11:32:20.900Z,33.88
2023-02-11T11:34:51.181Z,29.02
2023-02-11T11:37:22.962Z,28.45
2023-02-11T11:39:58.036Z,34.20
2023-02-11T11:42:27.336Z,33.10
2023-02-11T11:44:59.258Z,39.47
2023-02-11T11:50:11.854Z,31.10
2023-02-11T11:52:46.256Z,31.38
2023-02-11T11:55:19.379Z,32.55
2023-02-11T11:57:46.211Z,31.98
2023-02-11T12:00:19.166Z,32.90
2023-02-11T12:03:22.970Z,38.95
2023-02-11T12:06:04.961Z,36.67
2023-02-11T12:08:43.045Z,40.75
2023-02-11T12:11:20.255Z,38.03
2023-02-11T12:14:01.047Z,35.20
2023-02-11T12:16:36.179Z,37.08
2023-02-11T12:19:33.673Z,40.67
2023-02-11T12:22:10.441Z,38.70
2023-02-11T12:24:51.950Z,43.40
2023-02-11T12:27:33.752Z,39.28
2023-02-11T12:30:18.730Z,40.22
2023-02-11T12:32:50.576Z,37.40
2023-02-11T12:35:35.441Z,38.85
2023-02-11T12:38:24.537Z,39.65
2023-02-11T12:41:02.754Z,39.35
2023-02-11T12:43:36.773Z,42.10
2023-02-11T12:46:32.722Z,43.25
2023-02-11T12:49:21.894Z,41.78
2023-02-11T12:52:17.964Z,68.97
2023-02-11T12:54:53.257Z,59.53
2023-02-11T12:57:23.295Z,52.70
2023-02-11T12:59:58.385Z,37.83
2023-02-11T13:02:33.536Z,35.78
2023-02-11T13:05:03.877Z,43.65
2023-02-11T13:07:35.180Z,42.95
2023-02-11T13:10:07.161Z,42.97
2023-02-11T13:15:07.884Z,43.63
2023-02-11T13:17:40.733Z,50.33
2023-02-11T13:20:20.993Z,41.25
2023-02-11T13:22:56.095Z,34.20
2023-02-11T13:25:31.852Z,36.45
2023-02-11T13:28:05.431Z,34.88
2023-02-11T13:30:35.225Z,35.25
2023-02-11T13:33:05.363Z,42.33
2023-02-11T13:35:33.414Z,38.95
2023-02-11T13:38:01.958Z,35.38
2023-02-11T13:40:31.016Z,40.13
2023-02-11T13:42:59.763Z,38.85
2023-02-11T13:45:30.614Z,33.53
2023-02-11T13:48:00.821Z,34.08
2023-02-11T13:50:28.876Z,42.60
2023-02-11T13:53:01.065Z,35.50
2023-02-11T13:55:28.804Z,35.97
2023-02-11T13:58:19.228Z,37.00
2023-02-11T14:00:50.311Z,40.45
2023-02-11T14:03:30.224Z,36.38
2023-02-11T14:06:12.444Z,39.55
2023-02-11T14:09:06.934Z,37.28
2023-02-11T14:11:46.148Z,36.05
2023-02-11T14:14:22.128Z,36.90
2023-02-11T14:17:28.527Z,35.95
2023-02-11T14:19:55.591Z,39.63
2023-02-11T14:22:25.021Z,36.83
2023-02-11T14:24:56.775Z,36.40
2023-02-11T14:27:47.299Z,34.75
2023-02-11T14:30:26.091Z,34.25
2023-02-11T14:33:14.041Z,40.22
2023-02-11T14:35:50.094Z,36.80
2023-02-11T14:38:24.708Z,32.42
2023-02-11T14:40:58.548Z,35.47
2023-02-11T14:43:29.631Z,39.58
2023-02-11T14:45:58.414Z,38.88
2023-02-11T14:48:29.869Z,39.90
2023-02-11T14:51:00.729Z,39.40
2023-02-11T14:53:28.775Z,40.67
2023-02-11T14:55:56.721Z,42.80
2023-02-11T14:58:25.022Z,41.80
2023-02-11T15:00:55.340Z,39.00
2023-02-11T15:03:33.967Z,41.90
2023-02-11T15:06:04.988Z,34.95
2023-02-11T15:08:34.792Z,40.77
2023-02-11T15:11:07.861Z,38.35
2023-02-11T15:13:35.218Z,37.35
2023-02-11T15:16:06.881Z,39.22
2023-02-11T15:18:37.719Z,37.72
2023-02-11T15:21:05.401Z,37.55
2023-02-11T15:23:32.071Z,36.55
2023-02-11T15:25:59.090Z,36.63
2023-02-11T15:28:28.566Z,34.47
2023-02-11T15:31:00.865Z,36.75
2023-02-11T15:33:28.407Z,34.75
2023-02-11T15:35:54.946Z,38.63
2023-02-11T15:38:21.690Z,34.88
2023-02-11T15:40:54.219Z,39.83
2023-02-11T15:43:20.875Z,50.95
2023-02-11T15:45:58.797Z,58.33
2023-02-11T15:48:34.083Z,52.83
2023-02-11T15:51:03.756Z,46.95
2023-02-11T15:53:33.421Z,42.50
2023-02-11T15:56:09.823Z,39.13
2023-02-11T15:58:37.742Z,40.53
2023-02-11T16:01:07.074Z,43.83
2023-02-11T16:03:33.985Z,42.78
2023-02-11T16:06:20.279Z,47.97
2023-02-11T16:08:57.912Z,39.53
2023-02-11T16:11:27.280Z,46.30
2023-02-11T16:13:53.886Z,57.72
2023-02-11T16:16:26.026Z,61.45
2023-02-11T16:19:04.385Z,61.88
2023-02-11T16:21:34.674Z,71.32
2023-02-11T16:24:01.941Z,78.05
2023-02-11T16:26:32.177Z,75.72
2023-02-11T16:29:07.961Z,76.47
2023-02-11T16:31:38.920Z,81.47
2023-02-11T16:34:13.542Z,95.40
2023-02-11T16:36:40.182Z,82.82
2023-02-11T16:39:06.806Z,86.75
2023-02-11T16:41:33.522Z,84.22
2023-02-11T16:44:00.790Z,88.35
2023-02-11T16:46:28.564Z,83.78
2023-02-11T16:48:58.736Z,86.30
2023-02-11T16:51:25.457Z,65.93
2023-02-11T16:53:51.990Z,56.33
2023-02-11T16:56:18.623Z,50.25
2023-02-11T16:58:45.575Z,47.15
2023-02-11T17:01:14.063Z,54.58
2023-02-11T17:03:41.057Z,58.28
2023-02-11T17:06:10.916Z,75.38
2023-02-11T17:08:37.462Z,76.65
2023-02-11T17:11:04.282Z,72.60
2023-02-11T17:13:30.839Z,81.32
2023-02-11T17:15:57.547Z,77.10
2023-02-11T17:18:24.438Z,79.80
2023-02-11T17:20:51.069Z,75.55
2023-02-11T17:23:18.978Z,72.65
2023-02-11T17:25:45.528Z,72.90
2023-02-11T17:28:12.240Z,74.20
2023-02-11T17:30:40.998Z,85.22
2023-02-11T17:33:07.543Z,69.15
2023-02-11T17:35:34.121Z,79.53
2023-02-11T17:38:00.658Z,71.95
2023-02-11T17:40:28.811Z,72.50
2023-02-11T17:42:55.335Z,66.88
2023-02-11T17:45:22.503Z,72.40
2023-02-11T17:47:49.206Z,77.75
2023-02-11T17:50:16.148Z,76.00
2023-02-11T17:52:42.715Z,75.63
2023-02-11T17:55:09.348Z,71.30
2023-02-11T17:57:37.914Z,70.30
2023-02-11T18:00:07.430Z,66.55
2023-02-11T18:02:39.416Z,56.88
2023-02-11T18:05:06.697Z,61.22
2023-02-11T18:07:33.330Z,62.03
2023-02-11T18:09:59.956Z,58.83
2023-02-11T18:12:26.478Z,54.40
2023-02-11T18:14:57.563Z,51.60
2023-02-11T18:17:25.037Z,51.03
2023-02-11T18:19:55.529Z,55.03
2023-02-11T18:22:22.368Z,53.85
2023-02-11T18:24:52.341Z,55.25
2023-02-11T18:27:19.690Z,60.25
2023-02-11T18:29:46.232Z,56.97
2023-02-11T18:32:14.244Z,59.47
2023-02-11T18:34:41.222Z,63.72
2023-02-11T18:37:07.849Z,60.88
2023-02-11T18:39:34.719Z,61.50
2023-02-11T18:42:01.515Z,65.45
2023-02-11T18:44:28.176Z,67.30
2023-02-11T18:46:54.798Z,62.58
2023-02-11T18:49:22.782Z,56.47
2023-02-11T18:51:49.376Z,69.75
2023-02-11T18:54:16.362Z,67.75
2023-02-11T18:56:43.146Z,64.00
2023-02-11T18:59:09.682Z,53.83
2023-02-11T19:01:36.708Z,55.03
2023-02-11T19:04:04.907Z,53.17
2023-02-11T19:06:34.648Z,53.53
2023-02-11T19:09:04.351Z,47.35
2023-02-11T19:11:32.225Z,47.40
2023-02-11T19:13:58.973Z,38.75
2023-02-11T19:16:25.835Z,41.80
2023-02-11T19:18:52.369Z,47.15
2023-02-11T19:21:20.126Z,46.70
2023-02-11T19:23:47.990Z,36.00
2023-02-11T19:26:14.496Z,40.15
2023-02-11T19:28:41.018Z,40.63
2023-02-11T19:31:08.828Z,40.90
2023-02-11T19:33:36.269Z,40.95
2023-02-11T19:36:04.796Z,46.20
2023-02-11T19:38:31.427Z,43.67
2023-02-11T19:40:59.657Z,34.90
2023-02-11T19:43:26.190Z,35.08
2023-02-11T19:45:53.727Z,34.90
2023-02-11T19:48:24.816Z,33.22
2023-02-11T19:50:51.462Z,45.20
2023-02-11T19:53:18.035Z,48.72
2023-02-11T19:55:44.584Z,48.33
2023-02-11T19:58:12.897Z,47.80
2023-02-11T20:00:39.730Z,43.38
2023-02-11T20:03:06.603Z,35.45
2023-02-11T20:05:33.633Z,41.47
2023-02-11T20:08:00.223Z,39.53
2023-02-11T20:10:26.837Z,39.25
2023-02-11T20:12:53.464Z,41.08
2023-02-11T20:15:21.369Z,38.75
2023-02-11T20:17:47.896Z,40.03
2023-02-11T20:20:14.866Z,38.13
2023-02-11T20:22:43.245Z,44.88
2023-02-11T20:25:09.787Z,42.38
2023-02-11T20:27:36.339Z,45.20
2023-02-11T20:30:03.448Z,39.45
2023-02-11T20:32:35.395Z,39.03
2023-02-11T20:35:03.940Z,40.35
2023-02-11T20:37:30.775Z,36.20
2023-02-11T20:39:57.387Z,35.33
2023-02-11T20:42:23.923Z,38.08
2023-02-11T20:44:50.651Z,35.10
2023-02-11T20:47:17.452Z,36.45
2023-02-11T20:49:45.499Z,38.35
2023-02-11T20:52:12.256Z,33.53
2023-02-11T20:54:38.848Z,35.85
2023-02-11T20:57:05.407Z,34.08
2023-02-11T20:59:32.216Z,35.22
2023-02-11T21:01:58.802Z,26.45
2023-02-11T21:04:27.776Z,36.38
2023-02-11T21:06:57.451Z,31.65
2023-02-11T21:09:26.052Z,34.88
2023-02-11T21:11:53.779Z,35.50
2023-02-11T21:14:22.716Z,33.00
2023-02-11T21:16:49.527Z,31.73
2023-02-11T21:19:16.933Z,31.15
2023-02-11T21:21:43.570Z,37.25
2023-02-11T21:24:12.015Z,35.47
2023-02-11T21:26:38.839Z,32.70
2023-02-11T21:29:07.931Z,31.42
2023-02-11T21:31:35.772Z,34.55
2023-02-11T21:34:02.708Z,39.75
2023-02-11T21:36:29.913Z,35.20
2023-02-11T21:38:56.906Z,35.47
2023-02-11T21:41:25.042Z,32.40
2023-02-11T21:43:52.181Z,37.05
2023-02-11T21:46:20.031Z,32.28
2023-02-11T21:48:47.039Z,33.88
2023-02-11T21:51:17.209Z,35.65
2023-02-11T21:53:43.990Z,31.60
2023-02-11T21:56:13.562Z,35.58
2023-02-11T21:58:41.989Z,30.70
2023-02-11T22:01:13.421Z,34.45
2023-02-11T22:03:40.196Z,37.00
2023-02-11T22:06:08.417Z,43.17
2023-02-11T22:08:35.372Z,35.25
2023-02-11T22:11:03.502Z,37.63
2023-02-11T22:13:30.335Z,31.25
2023-02-11T22:15:59.707Z,31.25
2023-02-11T22:18:26.681Z,32.50
2023-02-11T22:21:00.535Z,32.90
2023-02-11T22:23:27.452Z,30.67
2023-02-11T22:25:54.487Z,29.38
2023-02-11T22:28:21.472Z,36.28
2023-02-11T22:30:52.709Z,37.95
2023-02-11T22:33:21.072Z,35.40
2023-02-11T22:35:47.702Z,39.40
2023-02-11T22:38:14.308Z,38.85
2023-02-11T22:40:42.026Z,33.08
2023-02-11T22:43:08.916Z,31.15
2023-02-11T22:45:35.936Z,33.08
2023-02-11T22:48:02.808Z,29.25
2023-02-11T22:50:30.908Z,28.05
2023-02-11T22:52:57.619Z,27.20
2023-02-11T22:55:24.436Z,29.08
2023-02-11T22:57:51.062Z,31.20
2023-02-11T23:00:18.139Z,36.38
2023-02-11T23:02:44.822Z,31.88
2023-02-11T23:05:11.462Z,31.77
2023-02-11T23:07:39.453Z,34.20
2023-02-11T23:10:07.233Z,33.45
2023-02-11T23:12:33.889Z,32.05
2023-02-11T23:15:02.122Z,35.38
2023-02-11T23:17:30.751Z,37.65
2023-02-11T23:19:57.352Z,30.95
2023-02-11T23:22:23.991Z,31.60
2023-02-11T23:24:51.873Z,34.58
2023-02-11T23:27:18.477Z,35.42
2023-02-11T23:29:45.361Z,33.47
2023-02-11T23:32:12.051Z,31.20
2023-02-11T23:34:38.695Z,36.33
2023-02-11T23:37:05.659Z,30.67
2023-02-11T23:39:32.496Z,34.08
2023-02-11T23:42:00.491Z,32.58
2023-02-11T23:44:27.624Z,31.60
2023-02-11T23:46:54.276Z,31.40
2023-02-11T23:49:21.081Z,32.30
2023-02-11T23:51:47.859Z,26.17
2023-02-11T23:54:14.970Z,30.70
2023-02-11T23:56:41.631Z,28.40
2023-02-11T23:59:09.513Z,34.97
